createdAt,value
2018-12-07T00:01:16.285Z,124.47
2018-12-07T00:03:45.347Z,129.00
2018-12-07T00:06:14.435Z,144.00
2018-12-07T00:08:43.448Z,142.23
2018-12-07T00:11:13.319Z,112.97
2018-12-07T00:13:42.457Z,117.77
2018-12-07T00:16:11.458Z,125.13
2018-12-07T00:18:40.495Z,110.93
2018-12-07T00:21:09.618Z,124.27
2018-12-07T00:23:38.606Z,126.50
2018-12-07T00:26:07.685Z,119.73
2018-12-07T00:28:36.725Z,130.43
2018-12-07T00:31:05.813Z,109.93
2018-12-07T00:33:34.921Z,123.97
2018-12-07T00:36:04.071Z,120.07
2018-12-07T00:38:33.109Z,116.03
2018-12-07T00:41:02.133Z,122.20
2018-12-07T00:43:31.333Z,123.07
2018-12-07T00:46:00.344Z,143.27
2018-12-07T00:48:30.488Z,121.73
2018-12-07T00:50:59.580Z,125.07
2018-12-07T00:53:28.746Z,133.07
2018-12-07T00:55:57.778Z,125.47
2018-12-07T00:58:26.892Z,123.93
2018-12-07T01:00:56.085Z,130.00
2018-12-07T01:03:25.104Z,136.80
2018-12-07T01:05:54.222Z,138.00
2018-12-07T01:08:23.343Z,139.70
2018-12-07T01:10:52.475Z,152.57
2018-12-07T01:13:21.591Z,156.17
2018-12-07T01:15:50.693Z,148.73
2018-12-07T01:18:19.670Z,140.27
2018-12-07T01:20:48.782Z,141.47
2018-12-07T01:23:17.833Z,147.23
2018-12-07T01:25:46.819Z,156.03
2018-12-07T01:28:15.990Z,140.60
2018-12-07T01:30:45.124Z,135.40
2018-12-07T01:33:14.178Z,141.63
2018-12-07T01:35:43.310Z,138.40
2018-12-07T01:38:12.450Z,135.37
2018-12-07T01:40:41.552Z,132.63
2018-12-07T01:43:10.684Z,135.90
2018-12-07T01:45:39.846Z,140.73
2018-12-07T01:48:08.910Z,129.50
2018-12-07T01:50:38.041Z,139.03
2018-12-07T01:53:07.125Z,128.67
2018-12-07T01:55:36.169Z,128.33
2018-12-07T01:58:05.299Z,119.80
2018-12-07T02:00:34.361Z,128.53
2018-12-07T02:03:03.470Z,124.00
2018-12-07T02:05:32.523Z,132.93
2018-12-07T02:08:01.607Z,136.83
2018-12-07T02:10:30.593Z,129.07
2018-12-07T02:12:59.663Z,125.73
2018-12-07T02:15:28.645Z,125.23
2018-12-07T02:17:57.654Z,138.90
2018-12-07T02:20:26.753Z,127.47
2018-12-07T02:22:55.878Z,135.10
2018-12-07T02:25:24.916Z,143.03
2018-12-07T02:27:59.618Z,134.10
2018-12-07T02:30:29.049Z,129.10
2018-12-07T02:32:58.155Z,129.77
2018-12-07T02:35:27.426Z,128.17
2018-12-07T02:37:56.570Z,128.63
2018-12-07T02:40:25.671Z,147.00
2018-12-07T02:42:54.741Z,150.80
2018-12-07T02:45:23.742Z,139.70
2018-12-07T02:47:52.754Z,139.97
2018-12-07T02:50:21.846Z,138.17
2018-12-07T02:52:50.917Z,137.30
2018-12-07T02:55:19.918Z,132.67
2018-12-07T02:57:49.064Z,129.33
2018-12-07T03:00:18.210Z,130.10
2018-12-07T03:02:47.426Z,131.07
2018-12-07T03:05:16.594Z,123.50
2018-12-07T03:07:45.696Z,131.43
2018-12-07T03:10:14.704Z,135.90
2018-12-07T03:12:43.773Z,128.73
2018-12-07T03:15:12.797Z,144.17
2018-12-07T03:17:41.853Z,148.37
2018-12-07T03:20:10.940Z,135.47
2018-12-07T03:22:39.997Z,146.10
2018-12-07T03:25:09.116Z,149.03
2018-12-07T03:27:38.358Z,153.33
2018-12-07T03:30:07.507Z,134.43
2018-12-07T03:32:36.627Z,145.33
2018-12-07T03:35:05.890Z,153.93
2018-12-07T03:37:35.047Z,143.20
2018-12-07T03:40:04.434Z,149.50
2018-12-07T03:42:33.466Z,159.00
2018-12-07T03:45:02.490Z,167.80
2018-12-07T03:47:31.531Z,152.00
2018-12-07T03:50:00.618Z,160.43
2018-12-07T03:52:29.786Z,157.57
2018-12-07T03:54:58.830Z,157.23
2018-12-07T03:57:27.939Z,160.53
2018-12-07T03:59:57.048Z,155.20
2018-12-07T04:02:26.029Z,160.20
2018-12-07T04:04:55.090Z,170.47
2018-12-07T04:07:24.102Z,166.93
2018-12-07T04:09:53.309Z,162.23
2018-12-07T04:12:22.439Z,158.87
2018-12-07T04:14:51.439Z,161.33
2018-12-07T04:17:20.601Z,171.03
2018-12-07T04:19:49.653Z,153.50
2018-12-07T04:22:18.766Z,173.07
2018-12-07T04:24:47.879Z,164.03
2018-12-07T04:27:17.200Z,164.27
2018-12-07T04:29:47.257Z,182.30
2018-12-07T04:32:16.290Z,171.07
2018-12-07T04:34:45.371Z,198.97
2018-12-07T04:37:14.370Z,173.20
2018-12-07T04:39:43.450Z,172.47
2018-12-07T04:42:12.530Z,161.87
2018-12-07T04:44:41.618Z,164.90
2018-12-07T04:47:10.911Z,163.63
2018-12-07T04:49:40.085Z,163.53
2018-12-07T04:52:09.314Z,153.50
2018-12-07T04:54:38.418Z,172.73
2018-12-07T04:57:07.498Z,160.17
2018-12-07T04:59:36.674Z,157.90
2018-12-07T05:02:05.821Z,161.70
2018-12-07T05:04:34.905Z,170.43
2018-12-07T05:07:04.040Z,171.70
2018-12-07T05:09:33.086Z,172.30
2018-12-07T05:12:02.204Z,162.57
2018-12-07T05:14:31.243Z,159.63
2018-12-07T05:17:00.304Z,168.53
2018-12-07T05:19:29.435Z,167.20
2018-12-07T05:21:58.543Z,176.90
2018-12-07T05:24:27.622Z,175.33
2018-12-07T05:26:56.676Z,173.00
2018-12-07T05:29:25.702Z,174.63
2018-12-07T05:31:54.947Z,172.93
2018-12-07T05:34:26.095Z,165.43
2018-12-07T05:36:55.110Z,154.93
2018-12-07T05:39:24.670Z,163.10
2018-12-07T05:41:53.698Z,155.73
2018-12-07T05:44:22.716Z,161.10
2018-12-07T05:46:51.782Z,159.60
2018-12-07T05:49:20.954Z,165.00
2018-12-07T05:51:50.422Z,164.73
2018-12-07T05:54:19.494Z,170.97
2018-12-07T05:56:48.662Z,163.03
2018-12-07T05:59:17.778Z,161.73
2018-12-07T06:01:47.090Z,160.07
2018-12-07T06:04:16.085Z,165.80
2018-12-07T06:06:45.138Z,176.30
2018-12-07T06:09:14.346Z,170.90
2018-12-07T06:11:43.366Z,175.90
2018-12-07T06:14:12.370Z,161.40
2018-12-07T06:16:41.479Z,154.07
2018-12-07T06:19:10.585Z,160.13
2018-12-07T06:21:39.746Z,146.33
2018-12-07T06:24:08.813Z,160.43
2018-12-07T06:26:37.822Z,155.03
2018-12-07T06:29:07.056Z,144.83
2018-12-07T06:31:36.165Z,138.00
2018-12-07T06:34:05.278Z,155.73
2018-12-07T06:36:34.350Z,140.47
2018-12-07T06:39:05.334Z,146.60
2018-12-07T06:41:35.441Z,136.80
2018-12-07T06:44:04.453Z,138.30
2018-12-07T06:46:33.454Z,132.70
2018-12-07T06:49:11.735Z,150.43
2018-12-07T06:51:42.188Z,137.70
2018-12-07T06:54:11.250Z,134.43
2018-12-07T06:56:40.473Z,140.30
2018-12-07T06:59:09.518Z,150.83
2018-12-07T07:01:38.625Z,145.50
2018-12-07T07:04:07.767Z,141.40
2018-12-07T07:06:36.825Z,135.13
2018-12-07T07:09:08.153Z,128.13
2018-12-07T07:11:37.233Z,137.47
2018-12-07T07:14:06.309Z,131.13
2018-12-07T07:16:35.525Z,129.13
2018-12-07T07:19:04.756Z,127.90
2018-12-07T07:21:33.893Z,136.50
2018-12-07T07:24:03.128Z,167.73
2018-12-07T07:26:32.252Z,144.30
2018-12-07T07:29:01.359Z,166.93
2018-12-07T07:31:30.380Z,147.37
2018-12-07T07:33:59.490Z,166.40
2018-12-07T07:36:28.815Z,174.47
2018-12-07T07:38:57.832Z,159.97
2018-12-07T07:41:26.979Z,153.90
2018-12-07T07:43:56.178Z,142.13
2018-12-07T07:46:25.310Z,165.20
2018-12-07T07:48:54.354Z,171.13
2018-12-07T07:51:23.467Z,158.80
2018-12-07T07:53:52.517Z,152.37
2018-12-07T07:56:21.570Z,145.97
2018-12-07T07:58:50.658Z,182.90
2018-12-07T08:01:19.666Z,172.87
2018-12-07T08:03:48.747Z,168.63
2018-12-07T08:06:18.068Z,186.30
2018-12-07T08:08:47.079Z,179.03
2018-12-07T08:11:16.266Z,186.10
2018-12-07T08:13:45.286Z,165.73
2018-12-07T08:16:14.303Z,156.50
2018-12-07T08:18:43.344Z,198.20
2018-12-07T08:21:12.386Z,179.63
2018-12-07T08:23:41.542Z,197.73
2018-12-07T08:26:10.608Z,200.43
2018-12-07T08:28:39.629Z,194.40
2018-12-07T08:31:08.746Z,190.23
2018-12-07T08:33:37.885Z,208.63
2018-12-07T08:36:06.989Z,196.80
2018-12-07T08:38:36.081Z,190.17
2018-12-07T08:41:05.148Z,206.07
2018-12-07T08:43:34.347Z,193.40
2018-12-07T08:46:03.488Z,189.07
2018-12-07T08:48:32.684Z,172.80
2018-12-07T08:51:01.841Z,165.43
2018-12-07T08:53:30.937Z,190.57
2018-12-07T08:56:00.020Z,181.17
2018-12-07T08:58:29.019Z,176.07
2018-12-07T09:00:58.099Z,189.70
2018-12-07T09:03:27.277Z,170.67
2018-12-07T09:05:56.342Z,193.93
2018-12-07T09:08:25.401Z,174.17
2018-12-07T09:10:54.460Z,190.43
2018-12-07T09:13:23.522Z,163.60
2018-12-07T09:15:52.668Z,166.93
2018-12-07T09:18:21.830Z,169.50
2018-12-07T09:20:54.193Z,188.03
2018-12-07T09:23:22.010Z,163.07
2018-12-07T09:25:51.010Z,171.87
2018-12-07T09:28:20.031Z,149.17
2018-12-07T09:30:49.165Z,161.27
2018-12-07T09:33:18.181Z,171.47
2018-12-07T09:35:47.413Z,178.97
2018-12-07T09:38:16.424Z,158.60
2018-12-07T09:40:45.541Z,156.50
2018-12-07T09:43:14.700Z,141.67
2018-12-07T09:45:43.789Z,159.67
2018-12-07T09:48:12.837Z,140.50
2018-12-07T09:50:41.973Z,152.13
2018-12-07T09:53:11.156Z,149.00
2018-12-07T09:55:40.293Z,143.13
2018-12-07T09:58:09.333Z,148.83
2018-12-07T10:00:38.404Z,132.43
2018-12-07T10:03:07.503Z,150.33
2018-12-07T10:05:36.822Z,154.53
2018-12-07T10:08:05.950Z,151.30
2018-12-07T10:10:35.038Z,136.37
2018-12-07T10:13:07.907Z,137.20
2018-12-07T10:15:35.230Z,131.07
2018-12-07T10:18:04.270Z,135.30
2018-12-07T10:20:33.817Z,128.80
2018-12-07T10:23:02.874Z,135.67
2018-12-07T10:25:31.915Z,118.10
2018-12-07T10:28:02.094Z,116.10
2018-12-07T10:30:31.339Z,127.77
2018-12-07T10:33:00.497Z,133.40
2018-12-07T10:35:29.647Z,131.97
2018-12-07T10:37:58.794Z,128.97
2018-12-07T10:40:27.822Z,132.77
2018-12-07T10:42:56.828Z,138.20
2018-12-07T10:45:25.921Z,147.40
2018-12-07T10:47:55.026Z,163.07
2018-12-07T10:50:24.097Z,183.70
2018-12-07T10:52:53.405Z,199.67
2018-12-07T10:55:22.422Z,166.07
2018-12-07T10:57:52.675Z,165.97
2018-12-07T11:00:27.125Z,184.73
2018-12-07T11:03:03.513Z,219.23
2018-12-07T11:05:37.926Z,190.83
2018-12-07T11:09:11.172Z,156.03
2018-12-07T11:11:43.813Z,168.27
2018-12-07T11:14:13.310Z,165.67
2018-12-07T11:16:47.623Z,144.87
2018-12-07T11:19:22.169Z,127.33
2018-12-07T11:21:56.709Z,134.20
2018-12-07T11:24:30.984Z,144.30
2018-12-07T11:27:05.479Z,120.20
2018-12-07T11:31:42.986Z,123.80
2018-12-07T11:34:22.552Z,111.37
2018-12-07T11:36:52.774Z,118.07
2018-12-07T11:39:21.833Z,102.23
2018-12-07T11:41:51.044Z,117.77
2018-12-07T11:44:22.132Z,120.90
2018-12-07T11:46:51.287Z,122.03
2018-12-07T11:49:22.977Z,116.30
2018-12-07T11:51:52.115Z,127.60
2018-12-07T11:54:21.326Z,119.97
2018-12-07T11:59:24.694Z,125.67
2018-12-07T12:01:53.767Z,124.77
2018-12-07T12:04:23.941Z,126.13
2018-12-07T12:06:52.972Z,132.17
2018-12-07T12:09:22.114Z,122.73
2018-12-07T12:11:53.289Z,117.80
2018-12-07T12:14:22.373Z,121.70
2018-12-07T12:16:51.466Z,115.40
2018-12-07T12:19:20.562Z,117.50
2018-12-07T12:21:49.580Z,107.77
2018-12-07T12:24:18.778Z,120.07
2018-12-07T12:26:47.855Z,126.97
2018-12-07T12:29:16.876Z,123.17
2018-12-07T12:31:46.158Z,105.53
2018-12-07T12:34:15.254Z,104.63
2018-12-07T12:36:44.474Z,100.43
2018-12-07T12:39:13.543Z,104.43
2018-12-07T12:41:46.686Z,103.53
2018-12-07T12:44:13.744Z,107.50
2018-12-07T12:46:42.837Z,107.60
2018-12-07T12:49:11.929Z,110.37
2018-12-07T12:51:41.149Z,94.83
2018-12-07T12:54:10.259Z,104.40
2018-12-07T12:56:39.393Z,88.17
2018-12-07T12:59:09.003Z,89.27
2018-12-07T13:01:38.514Z,98.10
2018-12-07T13:04:08.799Z,90.30
2018-12-07T13:06:38.957Z,98.50
2018-12-07T13:09:09.455Z,98.20
2018-12-07T13:11:40.510Z,110.80
2018-12-07T13:14:09.553Z,128.10
2018-12-07T13:16:38.610Z,115.53
2018-12-07T13:19:07.614Z,126.47
2018-12-07T13:21:36.637Z,121.33
2018-12-07T13:24:05.743Z,148.10
2018-12-07T13:26:34.902Z,139.27
2018-12-07T13:29:03.992Z,125.23
2018-12-07T13:31:34.009Z,127.67
2018-12-07T13:34:03.116Z,130.10
2018-12-07T13:36:32.241Z,123.53
2018-12-07T13:39:01.366Z,125.07
2018-12-07T13:41:32.627Z,151.67
2018-12-07T13:44:01.766Z,140.10
2018-12-07T13:46:31.443Z,155.40
2018-12-07T13:49:00.908Z,149.93
2018-12-07T13:51:30.421Z,158.53
2018-12-07T13:53:59.638Z,139.53
2018-12-07T13:56:28.936Z,149.37
2018-12-07T13:58:58.364Z,148.40
2018-12-07T14:01:28.037Z,136.33
2018-12-07T14:03:57.216Z,179.13
2018-12-07T14:06:26.383Z,128.30
2018-12-07T14:08:55.516Z,148.87
2018-12-07T14:11:24.811Z,143.70
2018-12-07T14:13:54.117Z,174.73
2018-12-07T14:16:23.535Z,141.07
2018-12-07T14:18:52.913Z,164.63
2018-12-07T14:21:22.379Z,155.17
2018-12-07T14:23:51.710Z,147.40
2018-12-07T14:26:20.984Z,158.37
2018-12-07T14:28:50.262Z,152.87
2018-12-07T14:31:19.632Z,134.23
2018-12-07T14:33:48.828Z,150.47
2018-12-07T14:36:17.993Z,142.17
2018-12-07T14:38:47.088Z,160.60
2018-12-07T14:41:16.411Z,178.50
2018-12-07T14:43:45.881Z,175.93
2018-12-07T14:46:15.011Z,166.03
2018-12-07T14:48:44.106Z,163.60
2018-12-07T14:51:13.318Z,209.00
2018-12-07T14:53:42.403Z,199.13
2018-12-07T14:56:11.767Z,188.73
2018-12-07T14:58:41.078Z,163.00
2018-12-07T15:01:10.491Z,183.50
2018-12-07T15:03:39.899Z,165.77
2018-12-07T15:06:09.970Z,150.37
2018-12-07T15:08:39.013Z,145.57
2018-12-07T15:11:08.216Z,181.40
2018-12-07T15:13:37.551Z,161.90
2018-12-07T15:16:06.689Z,201.57
2018-12-07T15:18:35.898Z,158.00
2018-12-07T15:21:05.201Z,183.40
2018-12-07T15:23:34.411Z,175.77
2018-12-07T15:26:03.689Z,148.53
2018-12-07T15:28:33.619Z,204.50
2018-12-07T15:31:02.952Z,219.97
2018-12-07T15:33:32.279Z,228.73
2018-12-07T15:36:01.455Z,235.03
2018-12-07T15:38:30.728Z,215.37
2018-12-07T15:41:00.004Z,189.53
2018-12-07T15:43:29.203Z,178.60
2018-12-07T15:45:58.450Z,214.47
2018-12-07T15:48:27.562Z,210.47
2018-12-07T15:50:56.722Z,221.77
2018-12-07T15:53:25.930Z,206.13
2018-12-07T15:55:55.280Z,223.73
2018-12-07T15:58:24.516Z,202.23
2018-12-07T16:00:53.685Z,181.13
2018-12-07T16:03:22.808Z,209.73
2018-12-07T16:05:52.014Z,201.70
2018-12-07T16:08:24.892Z,175.80
2018-12-07T16:10:53.312Z,181.70
2018-12-07T16:13:22.737Z,210.30
2018-12-07T16:15:51.809Z,202.60
2018-12-07T16:18:21.239Z,154.90
2018-12-07T16:20:50.393Z,138.57
2018-12-07T16:23:19.624Z,166.53
2018-12-07T16:25:48.964Z,174.53
2018-12-07T16:28:18.126Z,145.93
2018-12-07T16:30:47.209Z,176.67
2018-12-07T16:33:16.258Z,181.87
2018-12-07T16:35:45.568Z,167.57
2018-12-07T16:38:14.693Z,165.73
2018-12-07T16:40:44.074Z,197.43
2018-12-07T16:43:13.330Z,158.67
2018-12-07T16:45:42.474Z,184.63
2018-12-07T16:48:11.611Z,160.00
2018-12-07T16:50:41.875Z,205.43
2018-12-07T16:53:11.034Z,182.67
2018-12-07T16:55:40.407Z,229.97
2018-12-07T16:58:09.581Z,194.43
2018-12-07T17:00:39.916Z,192.37
2018-12-07T17:03:09.285Z,196.67
2018-12-07T17:05:38.369Z,173.73
2018-12-07T17:08:07.676Z,162.93
2018-12-07T17:10:36.980Z,164.33
2018-12-07T17:13:06.258Z,162.37
2018-12-07T17:15:35.618Z,159.20
2018-12-07T17:18:04.891Z,156.13
2018-12-07T17:20:34.216Z,160.17
2018-12-07T17:23:03.618Z,159.70
2018-12-07T17:25:32.688Z,149.97
2018-12-07T17:31:01.893Z,146.03
2018-12-07T17:33:31.131Z,137.20
2018-12-07T17:36:02.339Z,124.90
2018-12-07T17:38:31.602Z,122.87
2018-12-07T17:41:00.774Z,126.90
2018-12-07T17:43:29.911Z,134.47
2018-12-07T17:45:58.993Z,141.00
2018-12-07T17:48:28.435Z,160.97
2018-12-07T17:50:57.657Z,151.27
2018-12-07T17:53:26.967Z,140.17
2018-12-07T17:55:56.117Z,166.20
2018-12-07T17:58:25.355Z,171.47
2018-12-07T18:00:54.618Z,171.57
2018-12-07T18:03:23.737Z,169.17
2018-12-07T18:05:52.842Z,169.20
2018-12-07T18:08:22.042Z,160.37
2018-12-07T18:10:51.481Z,153.70
2018-12-07T18:13:20.710Z,138.53
2018-12-07T18:15:51.144Z,128.50
2018-12-07T18:18:20.353Z,143.90
2018-12-07T18:20:49.722Z,152.43
2018-12-07T18:23:18.864Z,135.63
2018-12-07T18:25:48.190Z,135.07
2018-12-07T18:28:17.687Z,142.47
2018-12-07T18:30:47.102Z,141.37
2018-12-07T18:33:16.344Z,148.10
2018-12-07T18:35:45.735Z,116.03
2018-12-07T18:38:14.798Z,148.30
2018-12-07T18:40:43.979Z,125.83
2018-12-07T18:43:13.236Z,162.57
2018-12-07T18:45:42.402Z,177.17
2018-12-07T18:48:11.575Z,162.73
2018-12-07T18:50:40.886Z,146.43
2018-12-07T18:53:10.085Z,149.13
2018-12-07T18:55:39.227Z,163.97
2018-12-07T18:58:08.510Z,167.93
2018-12-07T19:00:37.708Z,151.90
2018-12-07T19:03:06.819Z,124.17
2018-12-07T19:05:36.031Z,122.60
2018-12-07T19:08:05.518Z,150.47
2018-12-07T19:10:35.060Z,140.60
2018-12-07T19:13:04.403Z,136.73
2018-12-07T19:15:33.479Z,135.60
2018-12-07T19:18:02.822Z,146.57
2018-12-07T19:20:32.257Z,128.27
2018-12-07T19:23:01.467Z,156.17
2018-12-07T19:25:30.757Z,134.63
2018-12-07T19:27:59.915Z,144.23
2018-12-07T19:30:29.195Z,151.77
2018-12-07T19:32:58.354Z,139.97
2018-12-07T19:35:27.795Z,140.73
2018-12-07T19:37:57.372Z,128.37
2018-12-07T19:40:26.531Z,172.23
2018-12-07T19:42:55.682Z,165.63
2018-12-07T19:45:25.125Z,182.63
2018-12-07T19:47:55.376Z,150.70
2018-12-07T19:50:24.729Z,158.27
2018-12-07T19:52:54.210Z,167.50
2018-12-07T19:55:23.434Z,151.17
2018-12-07T19:57:52.606Z,162.47
2018-12-07T20:00:21.757Z,165.27
2018-12-07T20:02:50.986Z,151.27
2018-12-07T20:05:20.466Z,167.10
2018-12-07T20:07:49.639Z,159.90
2018-12-07T20:10:18.814Z,167.33
2018-12-07T20:12:48.420Z,162.60
2018-12-07T20:15:17.788Z,169.33
2018-12-07T20:17:47.293Z,168.00
2018-12-07T20:20:16.571Z,176.03
2018-12-07T20:22:45.901Z,164.77
2018-12-07T20:25:14.955Z,165.37
2018-12-07T20:27:44.291Z,181.47
2018-12-07T20:30:13.556Z,177.47
2018-12-07T20:32:43.618Z,192.23
2018-12-07T20:35:13.174Z,164.23
2018-12-07T20:37:42.424Z,165.10
2018-12-07T20:40:11.844Z,176.77
2018-12-07T20:42:41.238Z,166.43
2018-12-07T20:45:10.473Z,223.03
2018-12-07T20:47:39.731Z,227.93
2018-12-07T20:50:09.341Z,250.17
2018-12-07T20:52:38.679Z,268.97
2018-12-07T20:55:08.039Z,206.87
2018-12-07T20:57:37.293Z,199.63
2018-12-07T21:00:08.148Z,174.50
2018-12-07T21:02:37.631Z,199.20
2018-12-07T21:06:34.854Z,174.73
2018-12-07T21:09:29.359Z,188.37
2018-12-07T21:12:10.907Z,175.37
2018-12-07T21:14:45.491Z,172.07
2018-12-07T21:17:22.417Z,193.33
2018-12-07T21:19:57.128Z,190.33
2018-12-07T21:22:26.510Z,157.17
2018-12-07T21:24:55.796Z,159.13
2018-12-07T21:27:24.978Z,185.07
2018-12-07T21:30:25.144Z,176.93
2018-12-07T21:32:54.450Z,235.83
2018-12-07T21:35:23.634Z,176.93
2018-12-07T21:37:52.830Z,175.20
2018-12-07T21:40:29.698Z,185.07
2018-12-07T21:42:58.809Z,285.10
2018-12-07T21:45:27.882Z,254.23
2018-12-07T21:48:29.744Z,181.57
2018-12-07T21:52:39.720Z,189.63
2018-12-07T21:55:08.875Z,164.47
2018-12-07T21:57:37.972Z,172.70
2018-12-07T22:00:07.085Z,188.23
2018-12-07T22:02:37.530Z,172.80
2018-12-07T22:05:06.941Z,178.10
2018-12-07T22:07:36.403Z,164.50
2018-12-07T22:10:05.854Z,211.13
2018-12-07T22:12:35.521Z,163.83
2018-12-07T22:15:04.953Z,159.63
2018-12-07T22:17:35.134Z,174.77
2018-12-07T22:20:04.631Z,179.90
2018-12-07T22:22:33.774Z,174.30
2018-12-07T22:25:03.094Z,175.07
2018-12-07T22:27:32.321Z,177.83
2018-12-07T22:30:01.569Z,199.30
2018-12-07T22:32:30.841Z,176.20
2018-12-07T22:34:59.993Z,189.17
2018-12-07T22:37:29.269Z,190.77
2018-12-07T22:39:58.556Z,186.73
2018-12-07T22:42:28.752Z,184.93
2018-12-07T22:44:58.086Z,200.37
2018-12-07T22:47:27.250Z,191.53
2018-12-07T22:49:56.557Z,195.00
2018-12-07T22:52:25.678Z,178.07
2018-12-07T22:54:54.813Z,194.30
2018-12-07T22:57:23.810Z,172.70
2018-12-07T22:59:52.869Z,169.77
2018-12-07T23:02:21.943Z,179.40
2018-12-07T23:04:51.117Z,179.17
2018-12-07T23:07:20.197Z,157.93
2018-12-07T23:09:49.361Z,158.33
2018-12-07T23:12:18.416Z,160.20
2018-12-07T23:14:47.442Z,170.87
2018-12-07T23:17:18.636Z,162.40
2018-12-07T23:19:47.736Z,162.97
2018-12-07T23:22:16.894Z,173.27
2018-12-07T23:24:46.073Z,170.93
2018-12-07T23:27:15.123Z,184.47
2018-12-07T23:29:44.239Z,166.27
2018-12-07T23:32:13.391Z,160.80
2018-12-07T23:34:44.390Z,155.20
2018-12-07T23:37:13.601Z,157.70
2018-12-07T23:39:42.664Z,177.97
2018-12-07T23:42:11.728Z,168.37
2018-12-07T23:44:40.801Z,164.93
2018-12-07T23:47:09.987Z,149.50
2018-12-07T23:49:40.172Z,146.70
2018-12-07T23:52:09.264Z,148.27
2018-12-07T23:54:38.529Z,164.37
2018-12-07T23:57:07.589Z,176.83
2018-12-07T23:59:36.625Z,172.37
